Two Harbors, Minnesota
Current Conditions -  °F | °C
As of 6:14 AM on Sunday 23 Nov 2014 (Local Time) from KTWM Reporting Station
Haze Haze  
Wind Chill: 37°   Ceiling: 200
Heat Index: 37°   Visibility: 1.2mi
Dew Point: 34°   Wind: 0mph
Humidity: 87%   Direction: NA
Pressure: 29.4"   Gusts: NA
Location:  47.02°N, 91.67°W
Report Text: KTWM 231214Z AUTO 00000KT 1 1/4SM HZ OVC002 03/01 A2940 RMK AO2
Loading
Personal Weather Stations






























Interactive Weather Map New forecast layout! Learn more

10-Day Weather Forecast

Advertisements
Track Severe Weather on mobile